Grand Forks International Airport
KGFK : now visible

Airfield :











YOU CAN JOIN US ON...

 
LOGIN :

Register | Disclaimer

   EN    FR    IT 

 









Legend :    VFR   Marginal VFR   IFR   Intensive IFR   Very Intensive IFR
Visi :
Ceiling :
>= 8 km
>= 3000ft
5 to 8 km
1000 to 3000 ft
1500m to 5 km
500 to 1000 ft
800 to 1500m
200 to 500 ft
< 800m
< 200 ft
Symbols :   Thunderstorms  Fog  Heavy snow  Heavy precipitations  Wind > 20 kt






- Airport Elevation : 845 ft
- IATA code : GFK


KGFK - Grand Forks International

CURRENT METAR :
  • 100553Z AUTO 00000KT 10SM CLR M03/M05 A3009 RMK AO2 SLP203 I1000 I6000 T10281050 10028 21039 400391039 58007

EXPIRED METARs :
  • 100453Z AUTO 00000KT 10SM CLR M03/M04 A3009 RMK AO2 SLP205 LAST I1000 T10281044
  • 100430Z 16003KT 10SM CLR M02/M04 A3010 RMK AO2 LAST I1000 T10221044
  • 100353Z 20003KT 10SM CLR M03/M05 A3011 RMK AO2 SLP211 T10331050

TAF KGFK
Valid from the 10 at 06:00 until the 11 at 06:00 UTC


100520Z 1006/1106 VRB03KT P6SM SKC
FM100900 22006KT P6SM SCT200



MET'MAP, your aeronautical weather chart ! - Copyright ORBIFLY December 2007 - Disclaimer

ORBIFLY MET'MAP TEAM :

Programming & Development : Alexandra Zaïnal
Concept & original design : Baudouin d'Aumeries
Assistance for programming : Marc-Olivier Méhu
Technical & hardware support : Manuel Goepfert

Contact : metmap@orbifly.com




SOURCES & CREDITS :

   NOAA       Earth
Advisory